Latest Weather Observations for Woomera

IDS60801

Issued at 8:04 pm CDT Tuesday 31 March 2015 (issued every 30 minutes, with the page automatically refreshed every 10 minutes)

About weather observations | Map of weather stations | Latest weather observations for SA | Other Formats
Station Details ID: 016001 Name: WOOMERA AERODROME Lat: -31.16 Lon: 136.81 Height: 166.6 m
Data from the previous 72 hours. | See also: Recent months at Woomera
Date/Time
CDT
Temp
°C
App
Temp
°C
Dew
Point
Rel
Hum
%
Delta-T
°C
Wind Press
QNH
hPa
Press
MSL
hPa
Rain
since 9 am
mm
Dir
 
Spd
km/h
Gust
km/h
Spd
kts
Gust
kts
31/08:00pm 26.2 21.2 -1.5 16 12.6 ENE 15 17 8 9 1018.8 - 0.0
31/07:30pm 28.1 22.6 -2.2 13 13.8 ENE 17 20 9 11 1018.8 - 0.0
31/07:00pm 29.5 23.6 -2.2 12 14.6 ENE 19 24 10 13 1018.7 - 0.0
31/06:30pm 30.3 24.8 -1.9 12 15.0 ENE 17 24 9 13 1018.6 - 0.0
31/06:00pm 30.6 26.0 -1.1 13 15.0 E 13 20 7 11 1018.6 1017.9 0.0
31/05:30pm 30.9 26.5 0.1 14 14.9 ENE 13 19 7 10 1018.5 - 0.0
31/05:00pm 30.8 28.3 3.5 17 14.0 SSE 6 7 3 4 1018.5 - 0.0
31/04:30pm 30.9 27.6 2.6 16 14.3 ENE 9 15 5 8 1018.7 - 0.0
31/04:00pm 30.3 26.2 2.0 16 14.1 ESE 13 20 7 11 1019.0 - 0.0
31/03:30pm 30.7 26.7 2.9 17 14.1 NE 13 20 7 11 1019.2 - 0.0
31/03:00pm 31.0 27.8 2.8 16 14.3 SSE 9 17 5 9 1019.9 1019.2 0.0
31/02:30pm 29.9 26.9 4.0 19 13.3 ENE 9 15 5 8 1020.3 - 0.0
31/02:00pm 29.4 25.2 4.0 20 13.0 NE 15 24 8 13 1020.8 - 0.0
31/01:30pm 29.6 26.9 5.7 22 12.6 NE 9 19 5 10 1021.4 - 0.0
31/01:00pm 29.4 25.3 4.3 20 12.9 NE 15 22 8 12 1021.6 - 0.0
31/12:30pm 28.7 25.0 4.3 21 12.5 ENE 13 20 7 11 1022.1 - 0.0
31/12:00pm 28.3 24.2 4.2 21 12.3 NE 15 24 8 13 1022.7 1022.0 0.0
31/11:30am 27.6 22.6 4.5 22 11.8 NNE 20 24 11 13 1023.0 - 0.0
31/11:00am 26.7 21.3 4.7 24 11.2 ENE 22 28 12 15 1023.3 - 0.0
31/10:30am 25.6 20.8 4.6 26 10.6 ENE 19 22 10 12 1023.7 - 0.0
31/10:00am 24.2 19.4 4.6 28 9.8 ENE 19 22 10 12 1023.8 - 0.0
31/09:00am 20.7 17.8 4.5 34 7.9 ESE 9 11 5 6 1023.6 1023.0 0.0
31/08:30am 19.3 15.5 4.0 36 7.3 ESE 13 17 7 9 1023.3 - 0.0
31/08:00am 18.0 13.4 3.5 38 6.8 E 17 19 9 10 1022.9 - 0.0
31/07:30am 17.0 12.7 3.4 40 6.3 ESE 15 17 8 9 1022.7 - 0.0
31/07:00am 17.7 13.5 3.6 39 6.6 ESE 15 17 8 9 1022.5 - 0.0
31/06:30am 18.0 14.5 3.5 38 6.8 ESE 11 13 6 7 1022.7 - 0.0
31/06:00am 17.6 13.8 3.8 40 6.5 E 13 13 7 7 1022.4 1021.7 0.0
31/05:30am 18.0 13.7 3.2 37 6.9 ESE 15 17 8 9 1022.4 - 0.0
31/05:00am 18.2 14.2 2.6 35 7.2 ESE 13 15 7 8 1022.1 - 0.0
31/04:30am 18.5 14.4 2.1 33 7.5 ESE 13 15 7 8 1021.9 - 0.0
31/04:00am 18.5 14.4 2.1 33 7.5 ESE 13 13 7 7 1022.1 - 0.0
31/03:30am 19.1 15.0 2.1 32 7.8 ESE 13 13 7 7 1022.4 - 0.0
31/03:00am 19.9 16.3 3.2 33 7.9 ESE 11 13 6 7 1022.7 1022.0 0.0
31/02:30am 19.6 15.6 2.7 32 7.9 E 13 15 7 8 1022.7 - 0.0
31/02:00am 20.6 17.6 4.0 33 8.0 E 9 11 5 6 1023.2 - 0.0
31/01:30am 21.1 18.6 4.8 34 8.0 E 7 9 4 5 1022.9 - 0.0
31/01:00am 21.2 17.8 3.8 32 8.4 E 11 13 6 7 1022.8 - 0.0
31/12:30am 20.8 16.8 3.1 31 8.4 E 13 13 7 7 1022.7 - 0.0
31/12:00am 21.2 17.6 2.8 29 8.7 ESE 11 11 6 6 1022.9 1022.3 0.0
 
Date/Time
CDT
Temp
°C
App
Temp
°C
Dew
Point
Rel
Hum
%
Delta-T
°C
Wind Press
QNH
hPa
Press
MSL
hPa
Rain
since 9 am
mm
Dir
 
Spd
km/h
Gust
km/h
Spd
kts
Gust
kts
30/11:30pm 22.3 16.8 2.1 26 9.6 ESE 20 28 11 15 1023.1 - 0.0
30/11:00pm 22.8 20.2 3.4 28 9.4 W 6 7 3 4 1023.2 - 0.0
30/10:30pm 23.5 21.1 4.3 28 9.5 W 6 7 3 4 1023.1 - 0.0
30/10:00pm 23.7 21.2 4.0 27 9.8 SSW 6 9 3 5 1023.1 - 0.0
30/09:30pm 24.7 22.5 5.5 29 9.8 S 6 7 3 4 1022.9 - 0.0
30/09:00pm 25.4 22.7 3.9 25 10.7 S 7 9 4 5 1022.7 1022.0 0.0
30/08:30pm 25.4 22.4 3.9 25 10.7 S 9 11 5 6 1022.5 - 0.0
30/08:00pm 25.8 22.3 3.3 23 11.2 SSE 11 11 6 6 1022.3 - 0.0
30/07:30pm 27.0 23.8 3.3 21 11.8 SSE 9 13 5 7 1022.1 - 0.0
30/07:00pm 28.2 24.5 2.6 19 12.7 S 11 15 6 8 1022.0 - 0.0
30/06:30pm 28.7 24.6 2.5 18 13.0 S 13 19 7 10 1021.9 - 0.0
30/06:00pm 29.0 24.9 2.1 17 13.3 SSW 13 20 7 11 1021.8 1021.1 0.0
30/05:30pm 29.5 24.2 1.6 16 13.8 SSE 19 24 10 13 1021.8 - 0.0
30/05:00pm 29.3 24.4 2.3 17 13.5 S 17 22 9 12 1021.8 - 0.0
30/04:30pm 29.8 24.3 1.9 16 13.9 SW 20 30 11 16 1021.7 - 0.0
30/04:00pm 29.6 24.3 1.9 17 13.7 S 19 30 10 16 1021.8 - 0.0
30/03:30pm 29.4 25.9 3.7 19 13.1 S 11 19 6 10 1021.9 - 0.0
30/03:00pm 30.2 24.8 2.4 17 13.9 SE 20 24 11 13 1022.1 1021.4 0.0
30/02:30pm 28.7 25.8 4.6 21 12.4 SSE 9 20 5 11 1022.5 - 0.0
30/02:00pm 29.3 25.9 3.8 19 13.0 SSE 11 37 6 20 1022.9 - 0.0
30/01:30pm 28.0 25.5 4.9 23 11.9 SW 7 13 4 7 1023.4 - 0.0
30/01:00pm 27.4 24.1 4.4 23 11.7 NNE 11 20 6 11 1024.1 - 0.0
30/12:30pm 27.0 24.1 4.9 24 11.4 NE 9 13 5 7 1024.3 - 0.0
30/12:00pm 27.0 24.5 4.6 23 11.4 NNW 7 11 4 6 1024.6 1023.9 0.0
30/11:30am 25.8 22.8 4.0 24 10.9 N 9 15 5 8 1024.9 - 0.0
30/11:00am 25.2 22.3 4.8 27 10.3 N 9 15 5 8 1025.1 - 0.0
30/10:30am 24.2 20.7 3.6 26 10.2 NNE 11 15 6 8 1025.1 - 0.0
30/10:00am 22.8 19.0 3.7 28 9.3 NE 13 15 7 8 1025.0 - 0.0
30/09:30am 21.0 17.0 3.1 30 8.5 ENE 13 17 7 9 1024.7 - 0.0
30/09:00am 19.4 15.8 3.0 33 7.7 E 11 15 6 8 1024.4 1023.7 0.0
30/08:30am 17.9 14.7 3.3 37 6.8 E 9 9 5 5 1024.0 - 0.0
30/08:00am 16.7 13.5 3.3 40 6.2 E 9 11 5 6 1023.6 - 0.0
30/07:30am 16.9 13.8 3.6 41 6.2 ENE 9 9 5 5 1023.2 - 0.0
30/07:00am 16.6 13.6 4.0 43 5.9 ENE 9 9 5 5 1022.9 - 0.0
30/06:30am 16.5 14.0 5.0 46 5.5 ENE 7 7 4 4 1022.7 - 0.0
30/06:00am 17.1 14.2 4.5 43 6.0 ENE 9 11 5 6 1022.4 1021.7 0.0
30/05:30am 17.1 13.5 2.7 38 6.6 NE 11 13 6 7 1022.1 - 0.0
30/05:00am 16.3 12.7 3.0 41 6.1 ENE 11 13 6 7 1022.0 - 0.0
30/04:30am 16.6 12.6 2.8 39 6.3 ENE 13 13 7 7 1022.0 - 0.0
30/04:00am 17.1 13.1 2.7 38 6.6 E 13 15 7 8 1022.1 - 0.0
30/03:30am 17.4 13.7 2.5 37 6.8 NE 11 13 6 7 1022.3 - 0.0
30/03:00am 17.5 13.4 2.4 36 6.9 NNE 13 15 7 8 1022.5 1021.8 0.0
30/02:30am 18.3 14.3 2.7 35 7.2 N 13 17 7 9 1022.8 - 0.0
30/02:00am 17.8 14.1 2.5 36 7.0 NE 11 13 6 7 1022.9 - 0.0
30/01:30am 19.7 15.6 2.5 32 8.0 N 13 15 7 8 1022.7 - 0.0
30/01:00am 19.6 15.6 2.7 32 7.9 NNE 13 15 7 8 1022.9 - 0.0
30/12:30am 20.1 16.0 2.5 31 8.2 N 13 15 7 8 1023.0 - 0.0
30/12:00am 20.3 16.3 2.6 31 8.3 NNE 13 17 7 9 1023.2 1022.6 0.0
 
Date/Time
CDT
Temp
°C
App
Temp
°C
Dew
Point
Rel
Hum
%
Delta-T
°C
Wind Press
QNH
hPa
Press
MSL
hPa
Rain
since 9 am
mm
Dir
 
Spd
km/h
Gust
km/h
Spd
kts
Gust
kts
29/11:30pm 20.3 16.5 1.9 29 8.5 N 11 15 6 8 1023.3 - 0.0
29/11:00pm 22.5 19.7 2.9 27 9.4 SE 7 9 4 5 1023.2 - 0.0
29/10:30pm 21.6 18.6 2.2 27 9.1 S 7 7 4 4 1023.1 - 0.0
29/10:00pm 22.0 18.8 2.9 28 9.1 S 9 9 5 5 1022.9 - 0.0
29/09:30pm 23.1 19.9 3.3 27 9.6 S 9 11 5 6 1022.7 - 0.0
29/09:00pm 23.4 19.7 2.5 25 10.0 S 11 11 6 6 1022.5 1021.8 0.0
29/08:30pm 23.4 19.8 2.9 26 9.9 S 11 13 6 7 1022.3 - 0.0
29/08:00pm 24.3 20.7 2.9 24 10.4 S 11 13 6 7 1022.1 - 0.0
29/07:30pm 25.5 21.8 2.4 22 11.2 S 11 13 6 7 1021.7 - 0.0
29/07:00pm 26.0 22.4 2.7 22 11.4 S 11 15 6 8 1021.6 - 0.0
29/06:30pm 26.2 22.2 2.8 22 11.5 S 13 19 7 10 1021.4 - 0.0
29/06:00pm 26.8 22.2 1.8 19 12.1 S 15 19 8 10 1021.1 1020.4 0.0
29/05:30pm 26.7 23.4 2.7 21 11.8 WSW 9 15 5 8 1021.0 - 0.0
29/05:00pm 27.2 24.2 2.3 20 12.2 NE 7 13 4 7 1021.0 - 0.0
29/04:30pm 27.0 24.3 2.6 20 12.0 ESE 6 11 3 6 1021.2 - 0.0
29/04:00pm 25.8 23.3 4.0 24 10.9 NNE 6 11 3 6 1021.4 - 0.0
29/03:30pm 26.4 23.0 2.1 20 11.8 N 9 15 5 8 1021.6 - 0.0
29/03:00pm 26.3 23.5 3.3 22 11.4 E 7 13 4 7 1021.8 1021.1 0.0
29/02:30pm 25.4 22.2 2.9 23 11.0 S 9 15 5 8 1022.3 - 0.0
29/02:00pm 26.3 22.5 1.9 20 11.8 ENE 11 17 6 9 1022.6 - 0.0
29/01:30pm 25.1 21.8 2.3 22 11.0 NE 9 15 5 8 1022.9 - 0.0
29/01:00pm 24.9 21.5 1.9 22 11.0 NE 9 15 5 8 1023.2 - 0.0
29/12:30pm 24.2 20.5 2.3 24 10.5 N 11 15 6 8 1023.6 - 0.0
29/12:00pm 24.7 22.0 2.9 24 10.6 WNW 6 11 3 6 1023.6 1023.0 0.0
29/11:30am 23.1 19.9 3.3 27 9.6 NW 9 15 5 8 1023.7 - 0.0
29/11:00am 22.0 18.5 3.6 30 8.9 NW 11 15 6 8 1023.8 - 0.0
29/10:30am 21.6 17.0 3.8 31 8.7 NW 17 22 9 12 1024.0 - 0.0
29/10:00am 21.6 16.9 1.2 26 9.4 NW 15 19 8 10 1023.7 - 0.0
29/09:30am 19.9 17.0 2.8 32 8.0 NW 7 9 4 5 1023.4 - 0.0
29/09:00am 19.1 16.4 2.8 34 7.6 WNW 6 7 3 4 1023.1 1022.5 0.0
29/08:30am 18.3 15.5 3.4 37 7.0 NW 7 11 4 6 1022.8 - 0.0
29/08:00am 18.1 14.9 3.3 37 6.9 WSW 9 11 5 6 1022.5 - 0.0
29/07:30am 18.2 15.5 2.6 35 7.2 SW 6 13 3 7 1022.4 - 0.0
29/07:00am 18.8 16.3 1.6 31 7.8 S 4 7 2 4 1022.1 - 0.0
29/06:30am 19.4 16.5 1.7 30 8.1 SE 6 7 3 4 1021.9 - 0.0
29/06:00am 19.5 16.4 1.2 29 8.3 SSE 7 9 4 5 1021.5 1020.8 0.0
29/05:30am 19.3 17.3 2.2 32 7.9 SE 2 6 1 3 1021.5 - 0.0
29/05:00am 19.7 16.0 -0.3 26 8.8 SE 9 13 5 7 1020.7 - 0.0
29/04:30am 20.0 16.4 0.3 26 8.8 SSE 9 13 5 7 1020.7 - 0.0
29/04:00am 20.1 15.9 -0.6 25 9.1 SE 11 13 6 7 1020.4 - 0.0
29/03:30am 20.5 15.9 -1.4 23 9.5 SE 13 19 7 10 1020.4 - 0.0
29/03:00am 20.3 16.5 -1.0 24 9.3 SE 9 13 5 7 1020.8 1020.1 0.0
29/02:30am 19.9 16.5 -0.3 25 8.9 SSE 7 11 4 6 1021.1 - 0.0
29/02:00am 20.2 16.5 -0.1 25 9.0 SSE 9 11 5 6 1021.4 - 0.0
29/01:30am 20.4 16.7 0.0 25 9.1 SE 9 13 5 7 1021.5 - 0.0
29/01:00am 20.5 16.4 -0.2 25 9.2 SE 11 13 6 7 1021.3 - 0.0
29/12:30am 20.8 16.2 -0.8 23 9.5 SE 13 15 7 8 1021.3 - 0.0
29/12:00am 21.0 17.2 -0.4 24 9.5 SSE 9 13 5 7 1021.7 1021.0 0.0
 
Date/Time
CDT
Temp
°C
App
Temp
°C
Dew
Point
Rel
Hum
%
Delta-T
°C
Wind Press
QNH
hPa
Press
MSL
hPa
Rain
since 9 am
mm
Dir
 
Spd
km/h
Gust
km/h
Spd
kts
Gust
kts
28/11:30pm 21.0 17.2 -0.4 24 9.5 SSE 9 11 5 6 1021.6 - 0.0
28/11:00pm 21.1 16.6 -0.6 23 9.6 S 13 17 7 9 1021.6 - 0.0
28/10:30pm 21.5 17.0 -0.5 23 9.8 S 13 17 7 9 1021.8 - 0.0
28/10:00pm 21.7 16.5 -0.1 23 9.8 S 17 22 9 12 1021.7 - 0.0
28/09:30pm 22.1 16.9 -0.1 23 10.0 SSW 17 22 9 12 1021.6 - 0.0
28/09:00pm 22.5 17.3 0.0 22 10.2 SSW 17 22 9 12 1021.5 1020.8 0.0
28/08:30pm 23.0 18.9 -0.1 21 10.5 SSW 11 13 6 7 1021.3 - 0.0

Other Formats:

Comma delimited format used in spreadsheet applications
http://www.bom.gov.au/fwo/IDS60801/IDS60801.94659.axf

JavaScript Object Notation format (JSON) in row-major order
http://www.bom.gov.au/fwo/IDS60801/IDS60801.94659.json